Time;durP1;ratioP1;P1;durP2;ratioP2;P2;SDS_P1;SDS_P2;PMS_P1;PMS_P2;Temp;Humidity;BMP_temperature;BMP_pressure;BME280_temperature;BME280_humidity;BME280_pressure;Samples;Min_cycle;Max_cycle;Signal;HPM_P1;HPM_P2
2023/12/02 00:00:54;;;;;;;36.25;15.05;;;;;;;1.74;72.30;99875.72;8376948;28;20043;-57
2023/12/02 00:04:54;;;;;;;36.50;14.45;;;;;;;1.75;73.02;99865.94;8383657;28;20494;-57
2023/12/02 00:08:54;;;;;;;30.20;13.95;;;;;;;1.74;72.62;99869.56;8384796;28;20043;-56
2023/12/02 00:12:55;;;;;;;33.50;15.32;;;;;;;1.71;72.28;99867.09;8378627;28;20353;-57
2023/12/02 00:16:55;;;;;;;38.42;17.30;;;;;;;1.76;71.44;99872.97;8384109;28;20211;-56
2023/12/02 00:20:56;;;;;;;35.40;15.85;;;;;;;1.73;71.89;99873.16;8381539;28;20182;-56
2023/12/02 00:24:56;;;;;;;31.92;15.00;;;;;;;1.69;71.09;99861.00;8395041;28;20036;-56
2023/12/02 00:28:57;;;;;;;38.13;15.65;;;;;;;1.74;70.89;99865.06;8379534;28;20466;-56
2023/12/02 00:32:57;;;;;;;33.33;15.77;;;;;;;1.71;71.57;99869.75;8376570;28;20131;-56
2023/12/02 00:36:58;;;;;;;34.15;15.48;;;;;;;1.71;71.35;99875.09;8390285;28;20041;-56
2023/12/02 00:40:58;;;;;;;32.92;15.95;;;;;;;1.74;71.91;99882.88;8386876;28;20039;-57
2023/12/02 00:44:58;;;;;;;44.05;18.20;;;;;;;1.74;72.25;99874.88;8376017;28;20490;-58
2023/12/02 00:48:59;;;;;;;39.90;18.05;;;;;;;1.73;71.93;99867.84;8376919;28;20090;-58
2023/12/02 00:53:00;;;;;;;37.92;17.40;;;;;;;1.74;72.75;99869.56;8381972;28;20037;-57
2023/12/02 00:57:00;;;;;;;36.00;16.95;;;;;;;1.73;72.75;99867.84;8378399;28;20444;-59
2023/12/02 01:01:00;;;;;;;34.83;16.05;;;;;;;1.73;73.52;99868.69;8379660;28;20028;-56
2023/12/02 01:05:02;;;;;;;32.33;15.38;;;;;;;1.71;72.78;99861.78;8323432;28;20506;-57
2023/12/02 01:09:03;;;;;;;33.80;15.50;;;;;;;1.71;73.89;99867.94;8332609;28;20045;-56
2023/12/02 01:13:03;;;;;;;31.13;15.00;;;;;;;1.68;73.95;99869.97;8311103;28;20310;-56
2023/12/02 01:17:03;;;;;;;33.40;14.82;;;;;;;1.66;73.48;99871.88;8340245;28;20133;-54
2023/12/02 01:21:04;;;;;;;29.15;14.05;;;;;;;1.63;73.33;99877.41;8320223;28;20040;-55
2023/12/02 01:25:05;;;;;;;28.88;15.18;;;;;;;1.56;73.69;99879.59;8317697;28;20423;-53
2023/12/02 01:29:06;;;;;;;33.75;15.63;;;;;;;1.61;73.78;99873.97;8319988;28;20638;-55
2023/12/02 01:33:06;;;;;;;33.85;15.18;;;;;;;1.69;72.89;99890.31;8394757;28;20474;-59
2023/12/02 01:37:07;;;;;;;30.05;14.82;;;;;;;1.60;72.60;99898.91;8389448;28;20085;-56
2023/12/02 01:41:08;;;;;;;29.65;14.80;;;;;;;1.59;73.67;99903.34;8385343;28;20052;-58
2023/12/02 01:45:09;;;;;;;32.50;15.35;;;;;;;1.53;73.46;99892.28;8391972;28;20051;-60
2023/12/02 01:49:11;;;;;;;28.08;13.48;;;;;;;1.57;73.76;99896.44;8385702;28;20041;-58
2023/12/02 01:53:11;;;;;;;32.42;15.30;;;;;;;1.50;72.37;99903.13;8382861;28;20444;-58
2023/12/02 01:57:13;;;;;;;30.58;13.98;;;;;;;1.53;72.40;99910.91;8375751;28;20040;-56
2023/12/02 02:01:13;;;;;;;29.20;13.50;;;;;;;1.50;72.04;99909.28;8366929;28;20051;-57
2023/12/02 02:05:14;;;;;;;22.55;13.00;;;;;;;1.51;72.86;99912.81;8376722;28;20498;-56
2023/12/02 02:09:15;;;;;;;34.17;14.10;;;;;;;1.51;72.68;99910.16;8371761;28;20167;-56
2023/12/02 02:13:38;;;;;;;27.90;14.00;;;;;;;1.51;72.13;99915.47;8369216;28;20512;-57
2023/12/02 02:17:38;;;;;;;27.20;12.90;;;;;;;1.51;72.71;99920.81;8371767;28;20025;-56
2023/12/02 02:21:38;;;;;;;29.05;13.40;;;;;;;1.50;73.62;99932.41;8363241;28;20087;-55
2023/12/02 02:25:39;;;;;;;27.88;13.90;;;;;;;1.49;73.65;99925.34;8372197;28;20043;-55
2023/12/02 02:29:39;;;;;;;29.00;13.07;;;;;;;1.50;73.13;99932.41;8368702;28;20520;-56
2023/12/02 02:33:40;;;;;;;31.10;13.32;;;;;;;1.41;73.79;99919.69;8318641;28;20132;-57
2023/12/02 02:37:40;;;;;;;25.25;13.25;;;;;;;1.47;74.82;99921.97;8345454;28;20037;-55
2023/12/02 02:41:41;;;;;;;26.98;13.77;;;;;;;1.46;73.94;99928.22;8362289;28;20059;-55
2023/12/02 02:45:41;;;;;;;31.38;14.82;;;;;;;1.42;73.05;99927.59;8379733;28;20029;-58
2023/12/02 02:49:42;;;;;;;29.08;13.98;;;;;;;1.43;73.84;99931.06;8314513;28;20040;-57
2023/12/02 02:53:42;;;;;;;29.38;13.85;;;;;;;1.44;73.72;99925.66;8296483;28;20033;-58
2023/12/02 02:57:43;;;;;;;26.05;13.32;;;;;;;1.47;73.99;99930.78;8313655;28;20056;-56
2023/12/02 03:01:47;;;;;;;28.73;13.15;;;;;;;1.47;74.22;99935.28;8312068;28;20141;-58
2023/12/02 03:05:47;;;;;;;27.42;13.13;;;;;;;1.43;74.87;99936.41;8313477;28;20376;-56
2023/12/02 03:09:47;;;;;;;30.05;13.52;;;;;;;1.46;74.31;99944.19;8314166;28;20041;-58
2023/12/02 03:13:48;;;;;;;31.60;13.85;;;;;;;1.45;74.39;99942.50;8316413;28;20060;-55
2023/12/02 03:17:48;;;;;;;25.40;11.93;;;;;;;1.48;74.42;99942.31;8370542;28;20044;-57
2023/12/02 03:21:49;;;;;;;28.48;12.88;;;;;;;1.46;74.24;99938.88;8348755;28;20036;-56
2023/12/02 03:25:49;;;;;;;29.83;13.13;;;;;;;1.46;74.66;99944.19;8351817;28;20112;-59
2023/12/02 03:29:50;;;;;;;31.08;13.63;;;;;;;1.50;74.90;99945.72;8367636;28;20088;-59
2023/12/02 03:33:50;;;;;;;33.55;14.52;;;;;;;1.53;74.95;99935.72;8367606;28;20049;-57
2023/12/02 03:37:51;;;;;;;25.08;12.30;;;;;;;1.55;74.37;99943.59;8371808;28;20036;-59
2023/12/02 03:41:51;;;;;;;28.42;13.73;;;;;;;1.54;73.97;99944.56;8368367;28;20042;-59
2023/12/02 03:45:52;;;;;;;28.48;12.18;;;;;;;1.57;74.12;99952.38;8370708;28;20037;-56
2023/12/02 03:49:52;;;;;;;28.90;12.75;;;;;;;1.52;73.24;99944.66;8367067;28;20394;-56
2023/12/02 03:53:53;;;;;;;25.38;12.05;;;;;;;1.52;73.46;99959.78;8372619;28;20075;-56
2023/12/02 03:57:53;;;;;;;29.40;12.40;;;;;;;1.57;73.94;99952.38;8375942;28;20064;-55
2023/12/02 04:01:54;;;;;;;26.40;12.27;;;;;;;1.67;75.67;99965.00;8373534;28;20059;-56
2023/12/02 04:05:54;;;;;;;24.42;11.68;;;;;;;1.62;75.94;99960.94;8376525;28;20461;-57
2023/12/02 04:09:55;;;;;;;26.20;12.43;;;;;;;1.61;74.82;99964.53;8373634;28;20044;-55
2023/12/02 04:13:55;;;;;;;26.50;12.45;;;;;;;1.72;75.69;99978.03;8339502;28;20044;-55
2023/12/02 04:17:55;;;;;;;28.80;13.45;;;;;;;1.62;74.33;99967.09;8300738;28;20057;-55
2023/12/02 04:21:56;;;;;;;28.40;12.65;;;;;;;1.62;74.67;99971.59;8321030;28;20842;-53
2023/12/02 04:25:57;;;;;;;31.02;13.73;;;;;;;1.72;75.15;99986.00;8319155;28;20162;-54
2023/12/02 04:29:58;;;;;;;26.95;11.95;;;;;;;1.68;75.09;99987.19;8318150;28;20114;-55
2023/12/02 04:33:59;;;;;;;28.40;13.02;;;;;;;1.63;74.77;99983.94;8299817;28;20032;-54
2023/12/02 04:37:59;;;;;;;27.60;13.05;;;;;;;1.50;75.60;99985.69;8320281;28;20033;-55
2023/12/02 04:41:59;;;;;;;28.70;14.32;;;;;;;1.62;76.94;99990.22;8320548;28;20033;-56
2023/12/02 04:46:00;;;;;;;31.27;14.10;;;;;;;1.63;76.36;99999.91;8371176;28;20513;-58
2023/12/02 04:50:01;;;;;;;30.88;13.73;;;;;;;1.73;76.42;100006.38;8377620;28;20429;-58
2023/12/02 04:54:01;;;;;;;29.73;14.18;;;;;;;1.56;77.03;100003.94;8370992;28;20418;-59
2023/12/02 04:58:02;;;;;;;31.67;13.60;;;;;;;1.74;77.29;100008.09;8370968;28;20044;-56
2023/12/02 05:02:03;;;;;;;31.60;14.38;;;;;;;1.77;77.32;100019.41;8391143;28;20137;-57
2023/12/02 05:06:04;;;;;;;30.33;14.43;;;;;;;1.63;77.19;100021.22;8374628;28;20067;-57
2023/12/02 05:10:05;;;;;;;31.80;14.80;;;;;;;1.59;76.86;100017.06;8372277;28;20048;-57
2023/12/02 05:14:06;;;;;;;34.22;14.57;;;;;;;1.60;78.90;100011.63;8371183;28;20592;-57
2023/12/02 05:18:06;;;;;;;27.02;13.73;;;;;;;1.64;77.81;100015.81;8353864;28;20041;-57
2023/12/02 05:22:07;;;;;;;23.20;11.70;;;;;;;1.68;75.34;100022.63;8374063;28;20178;-56
2023/12/02 05:26:08;;;;;;;24.50;12.80;;;;;;;1.73;75.00;100033.00;8368784;28;20346;-59
2023/12/02 05:30:09;;;;;;;25.98;13.13;;;;;;;1.75;74.85;100033.78;8371511;28;20099;-58
2023/12/02 05:34:10;;;;;;;22.42;11.90;;;;;;;1.82;74.89;100043.09;8373359;28;20494;-58
2023/12/02 05:38:10;;;;;;;25.40;12.02;;;;;;;1.80;73.88;100039.69;8369346;28;20441;-59
2023/12/02 05:42:10;;;;;;;27.13;13.20;;;;;;;1.80;74.02;100042.34;8371897;28;20037;-59
2023/12/02 05:46:16;;;;;;;21.83;11.32;;;;;;;1.80;73.85;100047.66;8323948;28;20722;-55
2023/12/02 05:50:16;;;;;;;30.27;12.77;;;;;;;1.78;74.32;100042.44;8315494;28;20048;-54
2023/12/02 05:54:16;;;;;;;29.52;14.68;;;;;;;1.80;74.35;100050.34;8315454;28;20288;-56
2023/12/02 05:58:17;;;;;;;31.63;15.55;;;;;;;1.78;74.88;100047.78;8345058;28;20098;-58
2023/12/02 06:02:18;;;;;;;32.25;15.43;;;;;;;1.78;74.33;100057.56;8338907;28;20293;-55
2023/12/02 06:06:19;;;;;;;24.77;13.90;;;;;;;1.82;74.40;100056.41;8319682;28;20072;-54
2023/12/02 06:10:19;;;;;;;29.48;15.30;;;;;;;1.77;73.11;100058.53;8319607;28;20076;-55
2023/12/02 06:14:20;;;;;;;27.52;13.82;;;;;;;1.80;73.63;100064.50;8297401;28;20660;-55
2023/12/02 06:18:20;;;;;;;32.38;15.52;;;;;;;1.79;73.38;100060.13;8317981;28;20283;-55
2023/12/02 06:22:20;;;;;;;28.65;13.77;;;;;;;1.76;72.36;100064.78;8314495;28;20028;-55
2023/12/02 06:26:22;;;;;;;31.58;16.02;;;;;;;1.80;72.33;100066.31;8311771;28;20037;-55
2023/12/02 06:30:22;;;;;;;30.58;14.82;;;;;;;1.77;72.10;100077.19;8323917;28;20150;-53
2023/12/02 06:34:23;;;;;;;30.67;16.02;;;;;;;1.77;72.35;100075.34;8315633;28;20070;-55
2023/12/02 06:38:23;;;;;;;31.83;16.10;;;;;;;1.75;72.70;100084.41;8314282;28;20687;-55
2023/12/02 06:42:23;;;;;;;31.92;16.52;;;;;;;1.75;72.73;100089.72;8316199;28;20466;-55
2023/12/02 06:46:24;;;;;;;36.97;17.42;;;;;;;1.74;72.65;100088.84;8334622;28;20063;-56
2023/12/02 06:50:24;;;;;;;31.77;17.15;;;;;;;1.75;72.62;100106.56;8333383;28;20107;-56
2023/12/02 06:54:25;;;;;;;33.03;16.30;;;;;;;1.73;73.16;100113.78;8324592;28;20044;-57
2023/12/02 06:58:25;;;;;;;30.95;15.57;;;;;;;1.71;72.53;100112.19;8367303;28;20037;-57
2023/12/02 07:02:26;;;;;;;35.20;16.20;;;;;;;1.69;72.81;100122.06;8335013;28;20048;-56
2023/12/02 07:06:27;;;;;;;33.60;16.15;;;;;;;1.68;72.99;100123.03;8370602;28;20040;-54
2023/12/02 07:10:27;;;;;;;32.90;15.80;;;;;;;1.68;72.24;100136.34;8369363;28;20059;-55
2023/12/02 07:14:28;;;;;;;29.10;14.50;;;;;;;1.64;71.98;100150.78;8368270;28;20040;-55
2023/12/02 07:18:28;;;;;;;26.10;13.52;;;;;;;1.62;71.56;100158.03;8353939;28;20489;-56
2023/12/02 07:22:29;;;;;;;28.77;13.80;;;;;;;1.62;72.09;100158.03;8377178;28;20507;-55
2023/12/02 07:26:29;;;;;;;26.40;13.55;;;;;;;1.71;72.80;100179.63;8369631;28;20041;-55
2023/12/02 07:30:29;;;;;;;25.50;12.10;;;;;;;1.69;72.05;100191.34;8376465;28;20048;-54
2023/12/02 07:34:30;;;;;;;26.58;12.95;;;;;;;1.69;71.74;100194.00;8375658;28;20058;-54
2023/12/02 07:38:31;;;;;;;27.23;13.38;;;;;;;1.63;71.99;100194.38;8374498;28;20037;-54
2023/12/02 07:42:31;;;;;;;27.30;12.70;;;;;;;1.58;71.56;100204.44;8375686;28;20047;-54
2023/12/02 07:46:32;;;;;;;24.77;12.52;;;;;;;1.55;70.83;100204.63;8367906;28;20037;-56
2023/12/02 07:50:32;;;;;;;27.70;13.02;;;;;;;1.57;70.32;100208.06;8396024;28;20048;-56
2023/12/02 07:54:33;;;;;;;27.83;13.35;;;;;;;1.58;70.46;100204.44;8373003;28;20036;-54
2023/12/02 07:58:33;;;;;;;25.25;13.02;;;;;;;1.59;70.74;100208.84;8373815;28;20923;-56
2023/12/02 08:02:34;;;;;;;26.27;13.25;;;;;;;1.62;71.39;100206.00;8376019;28;20294;-56
2023/12/02 08:06:35;;;;;;;30.27;14.05;;;;;;;1.65;71.16;100219.13;8376087;28;20033;-56
2023/12/02 08:10:35;;;;;;;31.17;14.45;;;;;;;1.65;71.45;100211.13;8375869;28;20560;-56
2023/12/02 08:14:36;;;;;;;29.08;13.85;;;;;;;1.66;71.41;100219.03;8373392;28;20040;-55
2023/12/02 08:18:37;;;;;;;29.33;13.77;;;;;;;1.66;71.81;100220.84;8380222;28;20032;-58
2023/12/02 08:22:37;;;;;;;28.17;13.70;;;;;;;1.68;72.21;100226.94;8381793;28;20044;-56
2023/12/02 08:26:38;;;;;;;27.13;13.27;;;;;;;1.72;72.14;100223.13;8371385;28;20437;-56
2023/12/02 08:30:38;;;;;;;22.63;10.05;;;;;;;1.71;72.69;100232.09;8372135;28;20045;-56
2023/12/02 08:34:39;;;;;;;22.63;10.93;;;;;;;1.74;74.01;100242.56;8373563;28;20036;-56
2023/12/02 08:38:39;;;;;;;18.45;8.93;;;;;;;1.69;73.02;100241.97;8375180;28;20620;-58
2023/12/02 08:42:39;;;;;;;18.95;9.82;;;;;;;1.70;72.92;100243.66;8372224;28;20060;-57
2023/12/02 08:46:40;;;;;;;17.40;9.02;;;;;;;1.72;72.42;100255.09;8373200;28;20037;-56
2023/12/02 08:50:40;;;;;;;21.23;11.57;;;;;;;1.76;72.54;100267.28;8372230;28;20100;-57
2023/12/02 08:54:41;;;;;;;30.30;13.73;;;;;;;1.76;72.96;100269.94;8371338;28;20506;-56
2023/12/02 08:58:41;;;;;;;20.08;10.10;;;;;;;1.86;73.07;100279.97;8370732;28;20048;-54
2023/12/02 09:02:42;;;;;;;18.60;9.00;;;;;;;1.87;72.65;100280.81;8374233;28;20517;-56
2023/12/02 09:06:42;;;;;;;20.88;10.57;;;;;;;1.88;72.46;100293.19;8372270;28;20442;-55
2023/12/02 09:10:42;;;;;;;22.15;9.65;;;;;;;1.82;71.74;100298.88;8368987;28;20529;-55
2023/12/02 09:14:43;;;;;;;16.73;9.10;;;;;;;1.86;71.67;100295.13;8368462;28;20052;-55
2023/12/02 09:18:44;;;;;;;18.95;9.95;;;;;;;1.92;72.28;100305.38;8371809;28;20454;-55
2023/12/02 09:22:46;;;;;;;22.77;11.52;;;;;;;1.91;71.88;100301.88;8369073;28;20273;-55
2023/12/02 09:26:47;;;;;;;22.83;12.30;;;;;;;1.98;72.78;100299.69;8368370;28;20032;-56
2023/12/02 09:30:55;;;;;;;20.77;10.85;;;;;;;2.03;73.36;100298.47;8369590;28;20052;-56
2023/12/02 09:34:59;;;;;;;20.40;10.15;;;;;;;2.07;72.78;100304.47;8370004;28;20380;-55
2023/12/02 09:39:20;;;;;;;21.93;11.17;;;;;;;2.00;71.35;100303.13;8370331;28;20063;-55
2023/12/02 09:43:45;;;;;;;22.38;11.43;;;;;;;2.16;72.59;100303.91;8368390;28;20041;-55
2023/12/02 09:48:01;;;;;;;17.92;9.70;;;;;;;2.16;71.27;100298.56;8369271;28;20498;-54
2023/12/02 09:52:27;;;;;;;20.90;10.63;;;;;;;2.24;71.14;100304.31;8367531;28;20556;-55
2023/12/02 09:56:34;;;;;;;23.67;11.05;;;;;;;2.22;70.67;100305.34;8375002;28;20068;-55
2023/12/02 10:00:45;;;;;;;17.90;9.57;;;;;;;2.20;70.40;100310.78;8374968;28;20823;-55
2023/12/02 10:09:38;;;;;;;19.75;10.38;;;;;;;2.61;74.78;100317.09;8437157;27;20395;-55
2023/12/02 10:13:50;;;;;;;23.05;10.55;;;;;;;3.23;73.46;100310.41;8401815;27;20028;-52
2023/12/02 10:18:00;;;;;;;19.02;9.70;;;;;;;2.56;69.07;100316.50;8392298;27;20044;-56
2023/12/02 10:22:02;;;;;;;21.05;10.30;;;;;;;2.62;70.01;100324.13;8393785;27;20046;-54
2023/12/02 10:26:13;;;;;;;20.52;10.18;;;;;;;2.44;69.66;100332.44;8395622;27;20040;-55
2023/12/02 10:30:16;;;;;;;24.00;10.57;;;;;;;2.23;70.59;100329.25;8430990;27;20048;-56
2023/12/02 10:34:38;;;;;;;27.42;12.60;;;;;;;2.20;71.04;100336.59;8392859;27;20044;-55
2023/12/02 10:39:09;;;;;;;24.33;11.65;;;;;;;2.35;72.66;100325.81;8397891;27;20094;-55
2023/12/02 10:43:22;;;;;;;24.58;11.50;;;;;;;2.37;71.58;100328.41;8390930;27;20041;-55
2023/12/02 10:47:23;;;;;;;29.02;13.63;;;;;;;2.30;71.43;100330.59;8385036;28;20051;-56
2023/12/02 10:51:26;;;;;;;24.17;13.10;;;;;;;2.25;71.37;100329.16;8419312;27;20550;-55
2023/12/02 10:55:30;;;;;;;36.95;18.50;;;;;;;2.26;71.53;100310.41;8412856;27;20028;-56
2023/12/02 10:59:34;;;;;;;28.33;11.93;;;;;;;3.33;76.00;100317.72;8410704;27;20039;-50
2023/12/02 11:03:45;;;;;;;23.52;11.63;;;;;;;3.02;72.65;100312.63;8424215;27;20040;-55
2023/12/02 11:07:52;;;;;;;25.35;11.60;;;;;;;3.01;73.36;100310.94;8412385;28;20047;-53
2023/12/02 11:12:06;;;;;;;23.45;12.00;;;;;;;3.05;73.32;100307.09;8426856;27;20075;-55
2023/12/02 11:16:20;;;;;;;25.52;12.20;;;;;;;3.14;71.46;100316.34;8413138;27;20421;-54
2023/12/02 11:20:25;;;;;;;22.05;11.40;;;;;;;3.82;70.97;100321.53;8404165;28;20123;-55
2023/12/02 11:25:06;;;;;;;20.40;11.10;;;;;;;3.85;68.95;100321.31;8405229;28;20060;-53
2023/12/02 11:29:35;;;;;;;20.77;11.23;;;;;;;3.35;68.00;100331.84;8365899;28;20442;-56
2023/12/02 11:34:02;;;;;;;23.33;11.95;;;;;;;3.15;68.72;100323.41;8362710;28;20098;-56
2023/12/02 11:38:15;;;;;;;19.42;10.48;;;;;;;3.45;68.94;100321.41;8399276;28;20468;-57
2023/12/02 11:42:25;;;;;;;21.45;11.73;;;;;;;3.33;68.60;100336.41;8397463;28;20058;-57
2023/12/02 11:46:30;;;;;;;23.02;10.98;;;;;;;4.60;67.96;100330.41;8421649;27;20131;-55
2023/12/02 11:50:42;;;;;;;21.05;10.48;;;;;;;4.22;64.41;100340.22;8380298;28;20521;-55
2023/12/02 11:54:59;;;;;;;19.27;11.25;;;;;;;3.72;67.58;100346.31;8383550;28;20044;-54
2023/12/02 11:59:15;;;;;;;19.52;11.10;;;;;;;3.21;67.92;100355.94;8391280;28;20058;-56
2023/12/02 12:03:55;;;;;;;18.25;10.75;;;;;;;3.37;69.76;100359.31;8400924;28;20127;-56
2023/12/02 12:12:12;;;;;;;19.83;11.13;;;;;;;3.46;68.21;100356.06;8387179;27;20385;-55
2023/12/02 12:16:12;;;;;;;18.60;9.93;;;;;;;3.68;67.23;100360.81;8372820;27;20074;-55
2023/12/02 12:20:25;;;;;;;20.42;11.10;;;;;;;3.70;66.69;100358.91;8377539;27;20059;-55
2023/12/02 12:24:26;;;;;;;23.17;11.73;;;;;;;3.38;67.99;100369.03;8372472;28;20033;-55
2023/12/02 12:28:26;;;;;;;16.65;9.70;;;;;;;3.38;68.16;100373.50;8376584;28;20037;-55
2023/12/02 12:32:27;;;;;;;20.00;9.98;;;;;;;3.44;68.13;100374.00;8377832;27;20127;-54
2023/12/02 12:36:29;;;;;;;20.52;9.68;;;;;;;3.64;67.87;100370.88;8379615;27;20043;-54
2023/12/02 12:40:32;;;;;;;17.88;9.52;;;;;;;3.56;67.19;100380.34;8372523;27;20044;-55
2023/12/02 12:44:33;;;;;;;21.42;10.35;;;;;;;3.47;67.81;100376.47;8374488;27;20047;-56
2023/12/02 12:48:34;;;;;;;18.15;9.50;;;;;;;3.35;67.36;100382.59;8374694;28;20045;-54
2023/12/02 12:52:41;;;;;;;20.58;10.60;;;;;;;3.60;68.29;100390.72;8380304;27;20044;-56
2023/12/02 13:00:58;;;;;;;19.65;10.55;;;;;;;3.44;67.92;100400.69;8315551;28;20124;-55
2023/12/02 13:05:05;;;;;;;18.90;10.48;;;;;;;3.40;69.48;100404.53;8306310;28;20038;-55
2023/12/02 13:09:08;;;;;;;19.90;10.23;;;;;;;3.32;68.99;100398.81;8305234;28;20534;-54
2023/12/02 13:13:12;;;;;;;22.73;10.80;;;;;;;3.42;69.09;100407.94;8305960;28;20074;-56
2023/12/02 13:17:14;;;;;;;18.80;10.27;;;;;;;3.39;69.14;100407.31;8310296;28;20072;-55
2023/12/02 13:21:17;;;;;;;20.33;10.35;;;;;;;3.56;69.91;100413.28;8312778;28;20360;-54
2023/12/02 13:25:24;;;;;;;19.03;10.63;;;;;;;3.51;70.08;100420.72;8309325;28;20341;-57
2023/12/02 13:29:25;;;;;;;19.30;10.55;;;;;;;3.36;70.05;100426.22;8303221;28;20077;-55
2023/12/02 13:33:49;;;;;;;22.98;11.30;;;;;;;3.45;69.64;100413.09;8313702;28;20042;-55
2023/12/02 13:38:08;;;;;;;22.20;11.35;;;;;;;3.53;70.41;100412.59;8299472;28;20045;-54
2023/12/02 13:42:11;;;;;;;23.77;10.63;;;;;;;3.25;69.03;100429.56;8302435;28;20103;-54
2023/12/02 13:46:15;;;;;;;25.08;13.18;;;;;;;3.23;70.07;100428.78;8302641;28;20061;-53
2023/12/02 13:50:17;;;;;;;;;;;;;;;3.17;71.81;100423.81;8300218;28;20480;-55
2023/12/02 13:54:58;;;;;;;25.10;11.50;;;;;;;3.41;70.91;100422.28;8304777;28;19922;-55
2023/12/02 13:59:20;;;;;;;30.20;12.85;;;;;;;3.36;71.31;100434.22;8290257;28;20124;-53
2023/12/02 14:03:51;;;;;;;30.50;13.90;;;;;;;3.24;71.75;100451.88;8300602;28;20183;-57
2023/12/02 14:07:58;;;;;;;25.80;12.70;;;;;;;3.24;71.98;100445.69;8303058;28;20046;-54
2023/12/02 14:12:14;;;;;;;28.23;12.60;;;;;;;3.09;71.67;100452.84;8281632;28;20037;-53
2023/12/02 14:16:25;;;;;;;32.00;14.50;;;;;;;3.02;72.57;100453.31;8285213;28;20257;-55
2023/12/02 14:20:45;;;;;;;30.52;13.77;;;;;;;2.95;72.46;100466.16;8283318;28;20043;-55
2023/12/02 14:25:25;;;;;;;28.17;14.20;;;;;;;3.25;72.42;100474.09;8279322;28;20065;-54
2023/12/02 14:30:02;;;;;;;27.75;13.10;;;;;;;3.25;72.03;100482.97;8279414;28;20042;-53
2023/12/02 14:34:21;;;;;;;39.35;17.40;;;;;;;3.22;72.78;100491.19;8265133;28;20121;-53
2023/12/02 14:43:25;;;;;;;36.00;15.65;;;;;;;3.13;72.55;100496.22;8345040;27;20442;-58
2023/12/02 14:47:25;;;;;;;39.65;15.48;;;;;;;3.05;73.98;100501.19;8333620;28;20742;-55
2023/12/02 14:51:32;;;;;;;34.50;14.60;;;;;;;2.97;72.30;100512.34;8329921;28;20111;-54
2023/12/02 14:55:33;;;;;;;36.70;14.57;;;;;;;3.05;73.83;100526.06;8345908;28;20124;-56
2023/12/02 14:59:34;;;;;;;31.92;15.77;;;;;;;2.92;74.08;100530.44;8344729;28;20045;-56
2023/12/02 15:03:36;;;;;;;37.10;14.82;;;;;;;2.88;72.79;100539.59;8337059;28;20120;-55
2023/12/02 15:07:43;;;;;;;35.80;15.02;;;;;;;2.75;74.52;100543.94;8356876;28;20037;-54
2023/12/02 15:11:44;;;;;;;33.17;15.48;;;;;;;2.65;75.76;100548.09;8335818;28;20045;-55
2023/12/02 15:15:47;;;;;;;34.60;15.10;;;;;;;2.66;74.62;100554.28;8330070;28;20713;-54
2023/12/02 15:19:48;;;;;;;37.35;16.40;;;;;;;2.66;76.10;100559.63;8332969;28;20381;-55
2023/12/02 15:23:48;;;;;;;31.35;14.98;;;;;;;2.60;76.38;100571.53;8337977;28;20497;-56
2023/12/02 15:27:49;;;;;;;34.28;14.88;;;;;;;2.56;78.05;100580.63;8326881;28;20045;-54
2023/12/02 15:31:51;;;;;;;32.63;15.05;;;;;;;2.32;78.85;100587.41;8325126;28;20044;-57
2023/12/02 15:35:51;;;;;;;39.65;14.85;;;;;;;2.70;80.94;100594.06;8326127;28;20712;-56
2023/12/02 15:39:53;;;;;;;30.38;13.75;;;;;;;2.39;80.04;100599.44;8325720;28;20411;-56
2023/12/02 15:43:57;;;;;;;39.55;14.63;;;;;;;2.37;79.93;100612.00;8328135;28;20124;-55
2023/12/02 15:47:57;;;;;;;;;;;;;;;2.40;79.11;100611.81;8327156;28;20129;-55
2023/12/02 15:51:58;;;;;;;35.05;15.05;;;;;;;2.20;79.69;100629.91;8326729;28;20435;-55
2023/12/02 15:56:01;;;;;;;35.30;15.75;;;;;;;2.04;80.11;100636.06;8306048;28;20045;-57
2023/12/02 16:00:01;;;;;;;39.58;16.55;;;;;;;2.08;80.91;100642.13;8304240;28;20403;-57
2023/12/02 16:04:26;;;;;;;37.85;15.65;;;;;;;2.08;81.72;100653.63;8328309;27;20384;-57
2023/12/02 16:08:27;;;;;;;33.38;14.27;;;;;;;2.06;84.00;100649.31;8325377;28;20033;-58
2023/12/02 16:12:28;;;;;;;38.15;15.73;;;;;;;2.13;82.06;100650.69;8332033;28;20111;-54
2023/12/02 16:16:30;;;;;;;42.42;16.70;;;;;;;2.10;81.93;100661.53;8328373;28;20034;-57
2023/12/02 16:20:31;;;;;;;44.13;19.00;;;;;;;2.07;83.11;100659.03;8328272;28;20050;-55
2023/12/02 16:24:32;;;;;;;38.92;18.05;;;;;;;2.17;82.23;100665.59;8328978;28;20065;-55
2023/12/02 16:28:33;;;;;;;41.38;17.42;;;;;;;2.31;81.65;100663.03;8326483;28;20059;-56
2023/12/02 16:32:34;;;;;;;40.05;17.30;;;;;;;2.33;82.28;100669.13;8327638;28;20114;-56
2023/12/02 16:36:34;;;;;;;47.45;20.08;;;;;;;2.46;81.81;100680.84;8330042;28;20899;-56
2023/12/02 16:40:35;;;;;;;45.03;20.88;;;;;;;2.50;81.39;100674.38;8322845;28;20060;-57
2023/12/02 16:44:35;;;;;;;48.75;21.00;;;;;;;2.59;81.74;100694.38;8328709;28;20080;-55
2023/12/02 16:48:36;;;;;;;46.85;20.67;;;;;;;2.56;81.70;100691.88;8327299;28;20217;-55
2023/12/02 16:52:36;;;;;;;49.25;19.00;;;;;;;2.52;81.08;100699.19;8328613;28;20048;-56
2023/12/02 16:56:37;;;;;;;42.08;16.98;;;;;;;2.50;81.32;100693.06;8325698;28;20503;-56
2023/12/02 17:00:40;;;;;;;43.83;17.58;;;;;;;2.50;81.16;100695.72;8302936;28;20042;-57
2023/12/02 17:04:40;;;;;;;41.45;18.23;;;;;;;2.51;81.17;100694.78;8325851;28;20044;-57
2023/12/02 17:08:43;;;;;;;46.03;18.15;;;;;;;2.61;81.82;100690.66;8313740;28;20103;-56
2023/12/02 17:12:47;;;;;;;45.03;19.77;;;;;;;2.63;81.79;100703.91;8290058;28;20039;-55
2023/12/02 17:16:54;;;;;;;45.15;18.85;;;;;;;2.64;82.04;100711.84;8305147;28;20037;-56
2023/12/02 17:20:55;;;;;;;45.97;19.42;;;;;;;2.64;81.32;100716.28;8304634;28;20038;-57
2023/12/02 17:24:56;;;;;;;47.28;19.70;;;;;;;2.74;81.26;100723.69;8303334;28;20045;-57
2023/12/02 17:28:57;;;;;;;48.38;19.88;;;;;;;2.73;80.54;100718.44;8307132;28;20099;-54
2023/12/02 17:32:57;;;;;;;45.20;18.30;;;;;;;2.69;80.75;100727.59;8303667;28;20033;-56
2023/12/02 17:36:58;;;;;;;43.00;18.50;;;;;;;2.72;81.96;100730.97;8300972;28;20037;-56
2023/12/02 17:40:59;;;;;;;45.40;18.65;;;;;;;2.75;82.79;100741.47;8305294;28;20120;-55
2023/12/02 17:44:59;;;;;;;49.20;19.30;;;;;;;2.80;83.19;100749.22;8305680;28;20511;-55
2023/12/02 17:49:00;;;;;;;48.05;19.73;;;;;;;2.76;81.57;100742.31;8302132;28;20045;-57
2023/12/02 17:53:01;;;;;;;47.25;19.27;;;;;;;2.73;80.57;100735.34;8302418;28;20486;-56
2023/12/02 17:57:01;;;;;;;47.53;19.40;;;;;;;2.77;80.30;100744.88;8301572;28;20076;-58
2023/12/02 18:01:02;;;;;;;51.08;20.23;;;;;;;2.79;80.45;100743.00;8305103;28;20095;-57
2023/12/02 18:05:02;;;;;;;40.30;16.92;;;;;;;2.81;80.20;100745.59;8303491;28;20034;-58
2023/12/02 18:09:03;;;;;;;39.63;17.33;;;;;;;2.79;80.19;100743.00;8302311;28;20445;-57
2023/12/02 18:13:03;;;;;;;43.97;19.25;;;;;;;2.77;80.70;100749.38;8303355;28;20856;-57
2023/12/02 18:17:04;;;;;;;43.00;16.95;;;;;;;2.78;80.62;100751.97;8303788;28;20499;-57
2023/12/02 18:21:04;;;;;;;46.53;18.23;;;;;;;2.80;80.80;100749.22;8301886;28;20038;-56
2023/12/02 18:25:05;;;;;;;45.53;18.08;;;;;;;2.85;80.74;100753.34;8302284;28;20038;-57
2023/12/02 18:29:07;;;;;;;45.25;17.88;;;;;;;2.85;80.36;100757.81;8303482;28;20065;-59
2023/12/02 18:33:08;;;;;;;45.40;17.42;;;;;;;2.88;80.57;100758.50;8304966;28;20045;-56
2023/12/02 18:37:08;;;;;;;50.00;20.33;;;;;;;2.90;80.95;100750.41;8302162;28;20136;-58
2023/12/02 18:41:09;;;;;;;47.42;18.63;;;;;;;2.89;80.78;100762.88;8305764;28;20038;-56
2023/12/02 18:45:10;;;;;;;46.83;19.33;;;;;;;2.92;81.39;100760.03;8304131;28;20052;-57
2023/12/02 18:49:11;;;;;;;43.17;18.70;;;;;;;2.90;81.24;100772.59;8301330;28;20042;-54
2023/12/02 18:53:12;;;;;;;42.67;17.77;;;;;;;2.95;81.90;100778.56;8311674;28;20069;-55
2023/12/02 18:57:12;;;;;;;47.17;18.50;;;;;;;2.94;81.25;100782.19;8298657;28;20037;-56
2023/12/02 19:01:12;;;;;;;45.67;19.30;;;;;;;2.96;81.36;100777.59;8284988;28;20076;-56